Time;durP1;ratioP1;P1;durP2;ratioP2;P2;SDS_P1;SDS_P2;PMS_P1;PMS_P2;Temp;Humidity;BMP_temperature;BMP_pressure;BME280_temperature;BME280_humidity;BME280_pressure;Samples;Min_cycle;Max_cycle;Signal;HPM_P1;HPM_P2
2022/12/25 00:00:50;;;;;;;24.83;7.13;;;8.50;99.90;;;;;;5039371;28;20861;-66
2022/12/25 00:03:16;;;;;;;27.08;8.52;;;8.50;99.90;;;;;;5037089;28;20021;-66
2022/12/25 00:05:41;;;;;;;20.17;6.38;;;8.50;99.90;;;;;;5035677;28;20025;-66
2022/12/25 00:08:08;;;;;;;23.88;8.50;;;8.50;99.90;;;;;;5036532;28;20516;-66
2022/12/25 00:10:34;;;;;;;22.30;7.05;;;8.50;99.90;;;;;;5037548;28;20043;-66
2022/12/25 00:13:00;;;;;;;28.25;7.75;;;8.50;99.90;;;;;;5038066;28;20215;-66
2022/12/25 00:15:25;;;;;;;23.48;7.35;;;8.60;99.90;;;;;;5038524;28;20021;-66
2022/12/25 00:17:51;;;;;;;32.65;7.38;;;8.60;99.90;;;;;;5039093;28;20432;-66
2022/12/25 00:20:17;;;;;;;26.42;7.53;;;8.60;99.90;;;;;;5039200;28;20492;-66
2022/12/25 00:22:42;;;;;;;22.70;7.80;;;8.60;99.90;;;;;;5036194;28;20029;-66
2022/12/25 00:25:08;;;;;;;27.92;7.18;;;8.60;99.90;;;;;;5036155;28;20039;-66
2022/12/25 00:27:36;;;;;;;23.98;7.30;;;8.60;99.90;;;;;;5037079;28;20020;-66
2022/12/25 00:30:06;;;;;;;27.23;8.30;;;8.60;99.90;;;;;;5037833;28;20032;-66
2022/12/25 00:32:35;;;;;;;23.25;7.88;;;8.60;99.90;;;;;;5033597;28;20045;-66
2022/12/25 00:35:01;;;;;;;25.88;7.88;;;8.60;99.90;;;;;;5038343;28;20463;-66
2022/12/25 00:37:26;;;;;;;20.55;7.07;;;8.60;99.90;;;;;;5037600;28;20017;-66
2022/12/25 00:39:52;;;;;;;26.05;7.53;;;8.60;99.90;;;;;;5037963;28;20021;-66
2022/12/25 00:42:17;;;;;;;21.88;6.82;;;8.60;99.90;;;;;;5012436;28;20027;-66
2022/12/25 00:44:44;;;;;;;24.13;7.45;;;8.60;99.90;;;;;;5036360;28;20021;-66
2022/12/25 00:47:09;;;;;;;20.65;6.18;;;8.60;99.90;;;;;;5038143;28;20021;-66
2022/12/25 00:49:35;;;;;;;21.58;7.10;;;8.60;99.90;;;;;;5016285;28;20358;-66
2022/12/25 00:52:01;;;;;;;21.33;7.35;;;8.60;99.90;;;;;;5037677;28;20017;-66
2022/12/25 00:54:26;;;;;;;21.65;8.20;;;8.60;99.90;;;;;;5037800;28;20694;-66
2022/12/25 00:56:52;;;;;;;24.67;7.45;;;8.60;99.90;;;;;;5039074;28;20037;-66
2022/12/25 00:59:18;;;;;;;22.30;7.72;;;8.60;99.90;;;;;;5038215;28;20131;-66
2022/12/25 01:01:43;;;;;;;20.02;7.70;;;8.60;99.90;;;;;;5023038;28;20441;-66
2022/12/25 01:04:10;;;;;;;19.10;6.57;;;8.70;99.90;;;;;;5032170;28;20036;-66
2022/12/25 01:06:35;;;;;;;19.58;7.03;;;8.70;99.90;;;;;;5030570;28;20021;-66
2022/12/25 01:11:45;;;;;;;22.60;6.82;;;8.70;99.90;;;;;;5031567;28;20120;-66
2022/12/25 01:14:11;;;;;;;23.90;7.57;;;8.70;99.90;;;;;;5034862;28;20516;-66
2022/12/25 01:16:37;;;;;;;18.45;7.00;;;8.70;99.90;;;;;;5013243;28;20025;-66
2022/12/25 01:19:02;;;;;;;25.70;7.18;;;8.70;99.90;;;;;;5031241;28;20036;-66
2022/12/25 01:21:28;;;;;;;19.55;6.10;;;8.70;99.90;;;;;;5034685;28;20104;-66
2022/12/25 01:23:54;;;;;;;24.52;7.13;;;8.70;99.90;;;;;;5028065;28;20028;-66
2022/12/25 01:26:22;;;;;;;21.50;8.38;;;8.70;99.90;;;;;;5036520;28;20021;-66
2022/12/25 01:28:48;;;;;;;21.75;6.85;;;8.80;99.90;;;;;;5017463;28;20113;-66
2022/12/25 01:31:16;;;;;;;20.85;6.72;;;8.80;99.90;;;;;;5029809;28;20091;-66
2022/12/25 01:33:42;;;;;;;19.48;7.13;;;8.80;99.90;;;;;;5030857;28;20041;-66
2022/12/25 01:36:16;;;;;;;22.15;7.28;;;8.80;99.90;;;;;;5035490;28;20033;-67
2022/12/25 01:38:42;;;;;;;21.13;7.65;;;8.90;99.90;;;;;;5033077;28;20392;-66
2022/12/25 01:41:09;;;;;;;19.02;7.03;;;8.80;99.90;;;;;;5033087;28;20026;-66
2022/12/25 01:43:35;;;;;;;20.73;8.10;;;8.90;99.90;;;;;;5037182;28;20021;-66
2022/12/25 01:46:02;;;;;;;18.17;6.32;;;8.90;99.90;;;;;;5033429;28;20034;-66
2022/12/25 01:48:37;;;;;;;19.95;6.82;;;8.90;99.90;;;;;;5032780;28;20021;-66
2022/12/25 01:51:16;;;;;;;24.92;7.50;;;8.90;99.90;;;;;;5040894;28;20029;-66
2022/12/25 01:53:41;;;;;;;22.73;7.10;;;8.90;99.90;;;;;;5038597;28;20068;-66
2022/12/25 01:56:07;;;;;;;19.48;6.97;;;8.90;99.90;;;;;;5039135;28;20068;-66
2022/12/25 01:58:33;;;;;;;22.25;6.93;;;8.90;99.90;;;;;;5041710;28;20037;-66
2022/12/25 02:00:59;;;;;;;28.75;9.07;;;8.90;99.90;;;;;;5041714;28;20384;-66
2022/12/25 02:03:25;;;;;;;16.08;6.70;;;8.90;99.90;;;;;;5041485;28;20060;-66
2022/12/25 02:05:51;;;;;;;24.35;7.80;;;8.90;99.90;;;;;;5034333;28;20505;-66
2022/12/25 02:08:19;;;;;;;17.08;6.97;;;8.90;99.90;;;;;;5017428;28;20091;-66
2022/12/25 02:10:44;;;;;;;19.05;6.30;;;8.90;99.90;;;;;;5037493;28;20059;-66
2022/12/25 02:13:13;;;;;;;23.08;7.65;;;8.90;99.90;;;;;;5033053;28;20065;-66
2022/12/25 02:15:39;;;;;;;17.67;6.68;;;8.90;99.90;;;;;;5015269;28;20030;-66
2022/12/25 02:18:23;;;;;;;19.23;8.23;;;8.90;99.90;;;;;;5031597;28;20101;-66
2022/12/25 02:20:51;;;;;;;23.40;7.90;;;8.90;99.90;;;;;;5040688;28;20169;-66
2022/12/25 02:23:58;;;;;;;19.35;7.00;;;8.90;99.90;;;;;;5039172;28;20032;-66
2022/12/25 02:27:01;;;;;;;27.17;7.60;;;8.90;99.90;;;;;;5017296;28;20472;-66
2022/12/25 02:29:38;;;;;;;24.80;7.63;;;8.90;99.90;;;;;;5040143;28;20052;-66
2022/12/25 02:32:09;;;;;;;22.40;7.72;;;8.90;99.90;;;;;;5046758;28;20036;-66
2022/12/25 02:34:44;;;;;;;15.90;7.63;;;8.90;99.90;;;;;;5057483;28;20508;-66
2022/12/25 02:37:27;;;;;;;18.42;7.43;;;8.90;99.90;;;;;;5041537;28;20021;-66
2022/12/25 02:40:05;;;;;;;23.10;7.80;;;8.90;99.90;;;;;;5017393;28;20759;-66
2022/12/25 03:06:41;;;;;;;20.52;7.80;;;8.90;99.90;;;;;;5040158;28;20039;-66
2022/12/25 03:08:36;;;;;;;23.60;8.52;;;8.70;99.90;;;;;;5055070;28;20083;-66
2022/12/25 03:16:49;;;;;;;21.05;7.15;;;8.70;99.90;;;;;;5037778;28;20374;-66
2022/12/25 03:16:49;;;;;;;17.70;7.03;;;8.70;99.90;;;;;;5038735;28;20025;-66
2022/12/25 03:27:33;;;;;;;17.20;7.68;;;8.70;99.90;;;;;;5036985;28;20452;-66
2022/12/25 03:33:04;;;;;;;18.65;7.40;;;8.70;99.90;;;;;;5035780;28;20032;-66
2022/12/25 03:35:45;;;;;;;17.45;7.03;;;8.70;99.90;;;;;;5034766;28;20026;-66
2022/12/25 04:37:18;;;;;;;12.60;6.15;;;8.50;99.90;;;;;;5031456;28;20032;-66
2022/12/25 04:39:44;;;;;;;11.70;5.68;;;8.60;99.90;;;;;;5039496;28;20029;-66
2022/12/25 04:42:09;;;;;;;15.88;6.13;;;8.50;99.90;;;;;;5038546;28;20487;-66
2022/12/25 04:44:35;;;;;;;14.52;5.50;;;8.50;99.90;;;;;;5037895;28;20037;-66
2022/12/25 04:47:01;;;;;;;12.02;5.40;;;8.50;99.90;;;;;;5015308;28;20037;-66
2022/12/25 04:49:26;;;;;;;14.15;6.68;;;8.50;99.90;;;;;;5039100;28;20052;-66
2022/12/25 04:51:52;;;;;;;11.68;5.15;;;8.50;99.90;;;;;;5036562;28;20112;-66
2022/12/25 04:54:17;;;;;;;12.88;5.45;;;8.50;99.90;;;;;;5038513;28;20405;-66
2022/12/25 04:56:43;;;;;;;12.25;5.50;;;8.50;99.90;;;;;;5034715;28;20017;-66
2022/12/25 04:59:09;;;;;;;13.35;5.50;;;8.50;99.90;;;;;;5012780;28;20086;-67
2022/12/25 05:01:34;;;;;;;12.70;5.57;;;8.50;99.90;;;;;;5037301;28;20022;-66
2022/12/25 05:04:00;;;;;;;12.73;5.05;;;8.50;99.90;;;;;;5003636;28;20024;-67
2022/12/25 05:06:26;;;;;;;9.80;5.97;;;8.50;99.90;;;;;;5034992;28;20025;-66
2022/12/25 05:08:52;;;;;;;7.22;4.55;;;8.50;99.90;;;;;;5040113;28;20084;-66
2022/12/25 05:11:17;;;;;;;8.57;4.30;;;8.50;99.90;;;;;;5041845;28;20033;-67
2022/12/25 05:13:43;;;;;;;8.35;4.15;;;8.50;99.90;;;;;;5042960;28;20400;-66
2022/12/25 05:16:13;;;;;;;9.93;4.15;;;8.50;99.90;;;;;;5042152;28;20025;-66
2022/12/25 05:18:38;;;;;;;13.68;5.53;;;8.60;99.90;;;;;;5017534;28;20024;-66
2022/12/25 05:21:04;;;;;;;9.80;4.95;;;8.50;99.90;;;;;;5035149;28;20033;-66
2022/12/25 05:23:30;;;;;;;12.80;5.22;;;8.50;99.90;;;;;;5033886;28;20037;-66
2022/12/25 05:25:56;;;;;;;9.77;5.50;;;8.50;99.90;;;;;;5035109;28;20030;-67
2022/12/25 05:28:21;;;;;;;11.98;4.93;;;8.50;99.90;;;;;;5032613;28;20025;-67
2022/12/25 05:30:47;;;;;;;13.52;5.68;;;8.40;99.90;;;;;;5035954;28;20029;-66
2022/12/25 05:33:14;;;;;;;11.18;5.15;;;8.40;99.90;;;;;;5036523;28;20029;-66
2022/12/25 05:35:39;;;;;;;14.00;5.85;;;8.30;99.90;;;;;;5038525;28;20029;-66
2022/12/25 05:38:06;;;;;;;10.95;6.07;;;8.30;99.90;;;;;;5041923;28;20023;-66
2022/12/25 05:40:32;;;;;;;15.10;5.78;;;8.20;99.90;;;;;;5042329;28;20048;-66
2022/12/25 05:42:58;;;;;;;14.88;5.80;;;8.20;99.90;;;;;;5040246;28;20032;-67
2022/12/25 05:45:23;;;;;;;11.18;5.88;;;8.10;99.90;;;;;;5040795;28;20104;-67
2022/12/25 05:47:49;;;;;;;9.95;5.07;;;8.10;99.90;;;;;;5044862;28;20024;-66
2022/12/25 05:50:15;;;;;;;10.32;5.97;;;8.10;99.90;;;;;;5039097;28;20020;-66
2022/12/25 05:52:40;;;;;;;11.88;5.63;;;8.10;99.90;;;;;;5039289;28;20033;-66
2022/12/25 05:55:06;;;;;;;12.68;7.10;;;8.10;99.90;;;;;;5041316;28;20038;-67
2022/12/25 05:57:32;;;;;;;13.63;6.40;;;8.00;99.90;;;;;;5040905;28;20021;-66
2022/12/25 05:59:58;;;;;;;15.93;6.65;;;8.00;99.90;;;;;;5054184;28;20566;-66
2022/12/25 06:02:24;;;;;;;14.57;6.65;;;8.00;99.90;;;;;;5036951;28;20029;-66
2022/12/25 06:04:49;;;;;;;11.35;5.90;;;7.90;99.90;;;;;;5029399;28;20041;-66
2022/12/25 06:07:15;;;;;;;11.85;6.00;;;7.90;99.90;;;;;;5037625;28;20047;-66
2022/12/25 06:09:40;;;;;;;15.50;7.20;;;7.90;99.90;;;;;;5015959;28;20033;-66
2022/12/25 06:12:06;;;;;;;15.05;7.38;;;7.90;99.90;;;;;;5032742;28;20080;-66
2022/12/25 06:14:32;;;;;;;14.80;6.15;;;7.90;99.90;;;;;;5033256;28;20080;-66
2022/12/25 06:16:57;;;;;;;15.88;7.13;;;7.90;99.90;;;;;;5036825;28;20071;-66
2022/12/25 06:19:23;;;;;;;12.90;6.55;;;7.90;99.90;;;;;;5035737;28;20021;-66
2022/12/25 06:21:52;;;;;;;12.25;6.65;;;7.90;99.90;;;;;;5040956;28;20028;-66
2022/12/25 06:24:18;;;;;;;12.63;6.25;;;7.90;99.90;;;;;;5039482;28;20041;-66
2022/12/25 06:26:43;;;;;;;15.98;7.13;;;7.90;99.90;;;;;;5039975;28;20524;-66
2022/12/25 06:29:09;;;;;;;11.10;6.38;;;7.90;99.90;;;;;;5039428;28;20094;-66
2022/12/25 06:31:34;;;;;;;14.43;6.97;;;7.90;99.90;;;;;;5040982;28;20087;-66
2022/12/25 06:34:00;;;;;;;15.20;6.43;;;8.00;99.90;;;;;;5050650;28;20534;-66
2022/12/25 06:36:26;;;;;;;14.95;6.85;;;8.00;99.90;;;;;;5052996;28;20039;-66
2022/12/25 06:38:53;;;;;;;15.52;7.45;;;8.00;99.90;;;;;;5052891;28;20108;-66
2022/12/25 06:41:21;;;;;;;15.82;7.57;;;8.10;99.90;;;;;;5052810;28;20013;-66
2022/12/25 06:43:52;;;;;;;11.25;6.90;;;8.10;99.90;;;;;;5065848;28;20485;-66
2022/12/25 06:46:19;;;;;;;18.30;7.80;;;8.10;99.90;;;;;;5052015;28;20524;-66
2022/12/25 06:48:48;;;;;;;13.23;8.02;;;8.10;99.90;;;;;;5052515;28;20052;-66
2022/12/25 06:51:21;;;;;;;11.13;6.90;;;8.20;99.90;;;;;;5052981;28;20048;-66
2022/12/25 06:53:48;;;;;;;12.65;6.32;;;8.20;99.90;;;;;;5053124;28;20064;-66
2022/12/25 06:56:16;;;;;;;10.13;6.32;;;8.20;99.90;;;;;;5039699;28;20133;-66
2022/12/25 06:58:54;;;;;;;14.68;7.05;;;8.20;99.90;;;;;;5046436;28;20527;-66
2022/12/25 07:01:41;;;;;;;11.40;7.18;;;8.30;99.90;;;;;;5052610;28;20056;-66
2022/12/25 07:04:19;;;;;;;14.20;6.30;;;8.30;99.90;;;;;;5046130;28;20025;-66
2022/12/25 07:06:45;;;;;;;13.48;6.63;;;8.30;99.90;;;;;;5053046;28;20045;-66
2022/12/25 07:09:10;;;;;;;13.95;6.65;;;8.30;99.90;;;;;;5052407;28;20079;-66
2022/12/25 07:11:36;;;;;;;12.75;6.57;;;8.30;99.90;;;;;;5053160;28;20366;-66
2022/12/25 07:14:01;;;;;;;16.38;7.93;;;8.40;99.90;;;;;;5052986;28;20404;-66
2022/12/25 07:16:27;;;;;;;15.00;7.20;;;8.40;99.90;;;;;;5052211;28;20457;-66
2022/12/25 07:18:52;;;;;;;16.08;7.75;;;8.40;99.90;;;;;;5052869;28;20551;-66
2022/12/25 07:21:20;;;;;;;12.20;6.95;;;8.40;99.90;;;;;;5067882;28;20507;-66
2022/12/25 07:23:47;;;;;;;13.60;6.72;;;8.40;99.90;;;;;;5053016;28;20112;-66
2022/12/25 07:26:14;;;;;;;12.07;7.28;;;8.40;99.90;;;;;;5051764;28;20032;-66
2022/12/25 07:28:39;;;;;;;16.95;7.45;;;8.40;99.90;;;;;;5052067;28;20548;-66
2022/12/25 07:31:09;;;;;;;15.90;7.63;;;8.40;99.90;;;;;;5052237;28;20029;-66
2022/12/25 07:33:35;;;;;;;13.82;6.82;;;8.40;99.90;;;;;;5051444;28;20116;-66
2022/12/25 07:36:01;;;;;;;14.65;7.65;;;8.50;99.90;;;;;;5052721;28;20117;-66
2022/12/25 07:38:27;;;;;;;16.83;7.90;;;8.50;99.90;;;;;;5052503;28;20029;-66
2022/12/25 07:40:52;;;;;;;12.82;7.78;;;8.50;99.90;;;;;;5051793;28;20472;-66
2022/12/25 07:43:18;;;;;;;12.10;7.10;;;8.50;99.90;;;;;;5050573;28;20029;-66
2022/12/25 07:45:44;;;;;;;11.15;7.47;;;8.50;99.90;;;;;;5020136;28;20025;-66
2022/12/25 07:48:10;;;;;;;15.98;8.30;;;8.50;99.90;;;;;;5050559;28;20032;-66
2022/12/25 07:50:35;;;;;;;14.82;6.60;;;8.50;99.90;;;;;;5051057;28;20635;-66
2022/12/25 07:53:01;;;;;;;12.80;7.20;;;8.60;99.90;;;;;;5051420;28;20408;-66
2022/12/25 07:55:27;;;;;;;14.40;7.68;;;8.60;99.90;;;;;;5050795;28;20025;-66
2022/12/25 07:57:52;;;;;;;12.40;6.82;;;8.60;99.90;;;;;;5052296;28;20103;-66
2022/12/25 08:00:18;;;;;;;12.38;6.47;;;8.60;99.90;;;;;;5051845;28;20107;-66
2022/12/25 08:02:44;;;;;;;14.70;7.03;;;8.60;99.90;;;;;;5052048;28;20473;-66
2022/12/25 08:05:09;;;;;;;15.40;6.75;;;8.60;99.90;;;;;;5032012;28;20525;-66
2022/12/25 08:07:35;;;;;;;15.90;7.20;;;8.70;99.90;;;;;;5067479;28;20033;-66
2022/12/25 08:10:02;;;;;;;11.30;6.97;;;8.70;99.90;;;;;;5032772;28;20090;-66
2022/12/25 08:12:27;;;;;;;13.85;6.82;;;8.70;99.90;;;;;;5052373;28;20420;-66
2022/12/25 08:14:53;;;;;;;11.98;7.03;;;8.70;99.90;;;;;;5049351;28;20029;-66
2022/12/25 08:17:18;;;;;;;12.07;5.90;;;8.70;99.90;;;;;;5033730;28;20024;-66
2022/12/25 08:19:44;;;;;;;15.35;7.32;;;8.70;99.90;;;;;;5033596;28;20017;-66
2022/12/25 08:22:10;;;;;;;12.68;6.78;;;8.70;99.90;;;;;;5038594;28;20022;-66
2022/12/25 08:24:35;;;;;;;11.50;5.55;;;8.70;99.90;;;;;;5049185;28;20547;-66
2022/12/25 08:27:01;;;;;;;12.70;6.90;;;8.70;99.90;;;;;;5050036;28;20116;-66
2022/12/25 08:29:27;;;;;;;13.68;6.80;;;8.70;99.90;;;;;;5033741;28;20056;-67
2022/12/25 08:31:54;;;;;;;13.48;6.32;;;8.70;99.90;;;;;;5047804;28;20100;-67
2022/12/25 08:34:20;;;;;;;13.85;6.35;;;8.70;99.90;;;;;;5048856;28;20032;-66
2022/12/25 08:36:45;;;;;;;13.00;6.30;;;8.70;99.90;;;;;;5048254;28;20028;-66
2022/12/25 08:39:11;;;;;;;13.68;6.75;;;8.70;99.90;;;;;;5048617;28;20032;-67
2022/12/25 08:41:36;;;;;;;14.85;6.82;;;8.80;99.90;;;;;;5047453;28;20055;-67
2022/12/25 08:44:03;;;;;;;12.80;6.18;;;8.70;99.90;;;;;;5045452;28;20017;-66
2022/12/25 08:46:29;;;;;;;14.65;6.93;;;8.80;99.90;;;;;;5048830;28;20025;-66
2022/12/25 08:48:55;;;;;;;12.75;6.50;;;8.80;99.90;;;;;;5041271;28;20027;-66
2022/12/25 08:51:22;;;;;;;11.27;6.38;;;8.80;99.90;;;;;;5050229;28;20029;-66
2022/12/25 08:53:51;;;;;;;10.98;5.93;;;8.80;99.90;;;;;;5050215;28;20399;-66
2022/12/25 08:56:17;;;;;;;11.10;5.95;;;8.80;99.90;;;;;;5032601;28;20021;-66
2022/12/25 08:58:43;;;;;;;13.23;5.72;;;8.80;99.90;;;;;;5049576;28;20029;-66
2022/12/25 09:01:10;;;;;;;14.20;6.10;;;8.80;99.90;;;;;;5049186;28;20051;-67
2022/12/25 09:03:35;;;;;;;14.45;6.18;;;8.80;99.90;;;;;;5050560;28;20130;-67
2022/12/25 09:06:13;;;;;;;18.00;7.18;;;8.80;99.90;;;;;;5050106;28;20492;-66
2022/12/25 09:08:39;;;;;;;11.02;5.85;;;8.80;99.90;;;;;;5030492;28;20489;-66
2022/12/25 09:11:08;;;;;;;10.15;5.22;;;8.80;99.90;;;;;;5050407;28;20036;-66
2022/12/25 09:13:35;;;;;;;15.57;6.10;;;8.80;99.90;;;;;;5024106;28;20029;-66
2022/12/25 09:16:05;;;;;;;12.50;5.30;;;8.80;99.90;;;;;;5049514;28;20537;-66
2022/12/25 09:18:30;;;;;;;9.00;5.57;;;8.80;99.90;;;;;;5050641;28;20032;-66
2022/12/25 09:21:00;;;;;;;8.82;5.22;;;8.80;99.90;;;;;;5032288;28;20028;-66
2022/12/25 09:23:26;;;;;;;;;;;8.80;99.90;;;;;;5050323;28;20025;-66
2022/12/25 09:25:51;;;;;;;11.77;5.07;;;8.80;99.90;;;;;;5048791;28;19917;-66
2022/12/25 09:28:17;;;;;;;14.00;6.13;;;8.80;99.90;;;;;;5047864;28;20534;-66
2022/12/25 09:30:43;;;;;;;14.88;5.68;;;8.80;99.90;;;;;;5039045;28;20029;-66
2022/12/25 09:33:08;;;;;;;11.85;5.85;;;8.90;99.90;;;;;;5048219;28;20033;-66
2022/12/25 09:35:34;;;;;;;10.70;5.78;;;8.90;99.90;;;;;;5048353;28;20500;-66
2022/12/25 09:37:59;;;;;;;11.25;5.10;;;8.90;99.90;;;;;;5048220;28;20047;-66
2022/12/25 09:40:30;;;;;;;9.45;5.45;;;8.90;99.90;;;;;;5048751;28;20025;-66
2022/12/25 09:42:58;;;;;;;13.23;6.45;;;8.90;99.90;;;;;;5063863;28;20028;-66
2022/12/25 09:45:28;;;;;;;10.55;5.47;;;9.00;99.90;;;;;;5048400;28;20508;-66
2022/12/25 09:47:57;;;;;;;7.60;4.97;;;9.00;99.90;;;;;;5047933;28;20052;-67
2022/12/25 09:50:54;;;;;;;9.23;5.22;;;9.00;99.90;;;;;;5048399;28;20013;-66
2022/12/25 09:53:25;;;;;;;12.60;4.60;;;9.00;99.90;;;;;;5047681;28;20025;-66
2022/12/25 09:56:21;;;;;;;9.27;4.72;;;9.00;99.90;;;;;;5048458;28;20017;-66
2022/12/25 09:58:46;;;;;;;7.78;4.95;;;9.00;99.90;;;;;;5048322;28;20598;-66
2022/12/25 10:01:20;;;;;;;11.63;5.30;;;9.00;99.90;;;;;;5067689;28;20033;-66
2022/12/25 10:04:04;;;;;;;7.55;4.20;;;9.00;99.90;;;;;;5052063;28;20029;-67
2022/12/25 10:06:56;;;;;;;8.13;4.72;;;9.10;99.90;;;;;;5033778;28;20432;-67
2022/12/25 10:09:50;;;;;;;10.63;4.70;;;9.10;99.90;;;;;;5034795;28;20064;-67
2022/12/25 10:12:40;;;;;;;8.20;4.80;;;9.10;99.90;;;;;;5052233;28;20499;-66
2022/12/25 10:15:28;;;;;;;10.10;4.93;;;9.10;99.90;;;;;;5044937;28;20021;-66
2022/12/25 10:18:26;;;;;;;8.90;5.15;;;9.10;99.90;;;;;;5053669;28;20029;-67
2022/12/25 10:20:54;;;;;;;8.40;5.07;;;9.20;99.90;;;;;;5018557;28;20037;-66
2022/12/25 10:23:30;;;;;;;9.77;4.72;;;9.20;99.90;;;;;;5050331;28;20075;-67
2022/12/25 10:25:55;;;;;;;7.38;4.18;;;9.20;99.90;;;;;;5049209;28;20028;-67
2022/12/25 10:28:33;;;;;;;7.63;4.60;;;9.30;99.90;;;;;;5049501;28;20037;-67
2022/12/25 10:31:14;;;;;;;7.47;4.30;;;9.40;99.90;;;;;;5036852;28;20699;-66
2022/12/25 10:33:40;;;;;;;8.27;4.10;;;9.40;99.90;;;;;;5049923;28;20029;-67
2022/12/25 10:36:08;;;;;;;7.95;4.28;;;9.40;99.90;;;;;;5050340;28;20021;-66
2022/12/25 10:38:35;;;;;;;13.52;6.28;;;9.40;99.90;;;;;;5048157;28;20024;-67
2022/12/25 10:41:12;;;;;;;8.23;4.68;;;9.40;99.90;;;;;;5046897;28;20037;-67
2022/12/25 10:43:49;;;;;;;9.07;5.43;;;9.40;99.90;;;;;;5050528;28;20536;-66
2022/12/25 10:46:35;;;;;;;10.55;6.07;;;9.40;99.90;;;;;;5046809;28;20036;-67
2022/12/25 10:49:02;;;;;;;7.85;4.53;;;9.30;99.90;;;;;;5047001;28;20397;-66
2022/12/25 10:51:32;;;;;;;8.30;5.05;;;9.30;99.90;;;;;;5049304;28;20044;-67
2022/12/25 10:53:58;;;;;;;8.43;4.78;;;9.30;99.90;;;;;;5065085;28;20393;-66
2022/12/25 10:56:23;;;;;;;8.32;4.65;;;9.30;99.90;;;;;;5031903;28;20025;-66
2022/12/25 11:02:12;;;;;;;8.38;4.70;;;9.30;99.90;;;;;;5005214;28;20043;-66
2022/12/25 11:04:38;;;;;;;8.10;4.68;;;9.30;99.90;;;;;;5050543;28;20044;-66
2022/12/25 11:07:15;;;;;;;8.18;4.88;;;9.30;99.90;;;;;;5047989;28;20352;-66
2022/12/25 11:13:06;;;;;;;10.73;5.10;;;9.30;99.90;;;;;;4967771;28;20376;-67
2022/12/25 11:15:47;;;;;;;8.93;5.20;;;9.30;99.90;;;;;;5032347;28;20048;-68
2022/12/25 11:18:28;;;;;;;10.20;5.40;;;9.30;99.90;;;;;;5037163;28;20087;-66
2022/12/25 11:21:00;;;;;;;6.63;4.95;;;9.40;99.90;;;;;;5048922;28;20368;-66
2022/12/25 11:24:01;;;;;;;6.47;4.95;;;9.40;99.90;;;;;;5049648;28;20116;-67
2022/12/25 11:26:28;;;;;;;10.35;5.63;;;9.40;99.90;;;;;;5020783;28;20060;-66
2022/12/25 11:28:55;;;;;;;10.38;5.00;;;9.40;99.90;;;;;;5047503;28;20021;-66
2022/12/25 11:31:59;;;;;;;11.48;6.13;;;9.40;99.90;;;;;;5049462;28;20417;-66
2022/12/25 11:45:47;;;;;;;8.70;5.07;;;9.40;99.90;;;;;;4932586;28;20533;-66
2022/12/25 11:48:41;;;;;;;9.18;4.90;;;9.30;99.90;;;;;;4986886;28;20031;-67
2022/12/25 11:51:08;;;;;;;10.85;5.78;;;9.30;99.90;;;;;;5047626;28;20040;-67
2022/12/25 11:53:42;;;;;;;8.90;5.90;;;9.30;99.90;;;;;;5048908;28;20117;-66
2022/12/25 11:56:29;;;;;;;8.18;5.47;;;9.40;99.90;;;;;;5041605;28;20033;-66
2022/12/25 11:59:18;;;;;;;8.80;5.35;;;9.30;99.90;;;;;;5048672;28;20036;-66
2022/12/25 12:01:55;;;;;;;10.05;5.80;;;9.30;99.90;;;;;;5041533;28;20037;-66
2022/12/25 12:04:22;;;;;;;9.00;5.88;;;9.30;99.90;;;;;;5048827;28;20060;-66
2022/12/25 12:07:07;;;;;;;13.45;6.40;;;9.20;99.90;;;;;;5040614;28;20052;-67
2022/12/25 12:13:20;;;;;;;6.55;4.50;;;9.20;99.90;;;;;;5035533;28;20520;-66
2022/12/25 12:15:48;;;;;;;10.48;5.47;;;9.20;99.90;;;;;;5047924;28;20496;-66
2022/12/25 12:18:30;;;;;;;10.57;6.10;;;9.20;99.90;;;;;;5048390;28;20039;-66
2022/12/25 12:21:06;;;;;;;8.45;5.30;;;9.30;99.90;;;;;;5048941;28;20500;-66
2022/12/25 12:23:46;;;;;;;8.95;5.53;;;9.30;99.90;;;;;;5048007;28;20048;-67
2022/12/25 12:26:20;;;;;;;10.45;5.93;;;9.40;99.90;;;;;;5048691;28;20036;-67
2022/12/25 12:29:26;;;;;;;;;;;;;;;;;;;;;
2022/12/25 12:36:04;;;;;;;9.15;5.78;;;9.30;99.90;;;;;;4966745;28;20157;-67
2022/12/25 12:38:31;;;;;;;9.48;5.55;;;9.30;99.90;;;;;;4938509;28;20411;-66
2022/12/25 12:41:00;;;;;;;9.93;5.80;;;9.30;99.90;;;;;;5039847;28;20037;-66
2022/12/25 12:43:39;;;;;;;8.63;6.13;;;9.30;99.90;;;;;;5048131;28;20431;-66
2022/12/25 12:46:15;;;;;;;10.20;6.57;;;9.30;99.90;;;;;;5027887;28;20468;-67
2022/12/25 12:48:44;;;;;;;8.18;6.00;;;9.30;99.90;;;;;;5045070;28;20057;-66
2022/12/25 12:51:13;;;;;;;10.63;6.97;;;9.40;99.90;;;;;;5028664;28;20031;-66
2022/12/25 12:53:40;;;;;;;11.02;6.68;;;9.30;99.90;;;;;;5035167;28;20424;-66
2022/12/25 12:56:10;;;;;;;9.93;7.32;;;9.40;99.90;;;;;;5047555;28;20025;-66
2022/12/25 12:58:39;;;;;;;8.55;6.85;;;9.40;99.90;;;;;;5042439;28;20025;-65
2022/12/25 13:01:16;;;;;;;9.27;6.97;;;9.40;99.90;;;;;;5029867;28;20021;-66
2022/12/25 13:04:11;;;;;;;10.55;7.43;;;9.40;99.90;;;;;;5045225;28;20128;-66
2022/12/25 13:17:21;;;;;;;9.80;7.40;;;9.30;99.90;;;;;;4846680;29;20575;-66
2022/12/25 13:19:52;;;;;;;13.30;8.23;;;9.30;99.90;;;;;;4958171;28;20138;-66
2022/12/25 13:22:24;;;;;;;11.00;7.75;;;9.40;99.90;;;;;;5007016;28;20048;-66
2022/12/25 13:24:58;;;;;;;10.95;7.85;;;9.40;99.90;;;;;;5035842;28;20107;-66
2022/12/25 13:27:29;;;;;;;11.18;7.97;;;9.40;99.90;;;;;;5025865;28;20084;-66
2022/12/25 13:29:56;;;;;;;10.93;8.27;;;9.40;99.90;;;;;;5045961;28;20568;-66
2022/12/25 13:32:25;;;;;;;9.77;8.55;;;9.40;99.90;;;;;;5049906;28;20033;-66
2022/12/25 13:37:57;;;;;;;14.60;9.35;;;9.40;99.90;;;;;;5042019;28;20051;-66
2022/12/25 13:44:23;;;;;;;13.80;9.85;;;9.50;99.90;;;;;;4974564;28;20621;-66
2022/12/25 13:46:48;;;;;;;14.52;10.77;;;9.40;99.90;;;;;;4974814;28;20202;-66
2022/12/25 13:53:28;;;;;;;14.52;10.25;;;9.40;99.90;;;;;;5029809;28;20511;-66
2022/12/25 13:55:54;;;;;;;13.65;9.88;;;9.50;99.90;;;;;;5034385;28;20082;-66
2022/12/25 14:12:50;;;;;;;12.53;9.43;;;9.50;99.90;;;;;;4825896;28;20399;-67
2022/12/25 14:15:20;;;;;;;14.88;9.50;;;9.50;99.90;;;;;;4969219;28;20391;-67
2022/12/25 14:17:46;;;;;;;11.55;8.60;;;9.60;99.90;;;;;;4990308;28;20042;-67
2022/12/25 14:20:29;;;;;;;12.95;9.82;;;9.60;99.90;;;;;;5025883;28;20041;-67
2022/12/25 14:23:26;;;;;;;12.95;9.60;;;9.60;99.90;;;;;;5012423;28;20030;-67
2022/12/25 14:25:52;;;;;;;12.88;10.50;;;9.60;99.90;;;;;;5012632;28;20036;-67
2022/12/25 14:28:22;;;;;;;13.35;10.52;;;9.60;99.90;;;;;;5030769;28;20029;-67
2022/12/25 14:30:47;;;;;;;;;;;9.60;99.90;;;;;;5029568;28;20018;-67
2022/12/25 14:33:20;;;;;;;13.05;10.57;;;9.50;99.90;;;;;;5030575;28;19919;-67
2022/12/25 14:35:47;;;;;;;15.35;11.40;;;9.60;99.90;;;;;;5025328;28;20532;-67
2022/12/25 14:38:28;;;;;;;14.13;11.60;;;9.60;99.90;;;;;;5022478;28;20040;-67
2022/12/25 14:41:05;;;;;;;11.82;10.23;;;9.60;99.90;;;;;;5024617;28;20477;-67
2022/12/25 14:43:31;;;;;;;14.63;10.02;;;9.60;99.90;;;;;;5030500;28;20033;-67
2022/12/25 14:47:06;;;;;;;;;;;;;;;;;;;;;
2022/12/25 14:49:24;;;;;;;12.43;10.55;;;9.60;99.90;;;;;;5014205;28;20547;-67
2022/12/25 14:51:50;;;;;;;12.02;10.15;;;9.50;99.90;;;;;;5030068;28;20022;-67
2022/12/25 14:54:19;;;;;;;10.05;8.30;;;9.60;99.90;;;;;;5030176;28;20032;-67
2022/12/25 14:56:47;;;;;;;13.20;9.95;;;9.60;99.90;;;;;;5033498;28;20049;-67
2022/12/25 14:59:19;;;;;;;12.55;10.10;;;9.60;99.90;;;;;;5037739;28;20040;-67
2022/12/25 15:01:50;;;;;;;11.60;9.38;;;9.60;99.90;;;;;;5041355;28;20029;-67
2022/12/25 15:04:17;;;;;;;13.77;10.68;;;9.60;99.90;;;;;;5052954;28;20037;-67
2022/12/25 15:06:52;;;;;;;12.57;10.52;;;9.60;99.90;;;;;;5053073;28;20025;-67
2022/12/25 15:09:18;;;;;;;12.75;10.55;;;9.70;99.90;;;;;;5042943;28;20025;-67
2022/12/25 15:11:54;;;;;;;13.38;10.25;;;9.60;99.90;;;;;;5053079;28;20017;-67
2022/12/25 15:14:20;;;;;;;12.95;11.23;;;9.60;99.90;;;;;;5052819;28;20167;-67
2022/12/25 15:16:49;;;;;;;12.98;10.43;;;9.60;99.90;;;;;;5053282;28;20040;-67
2022/12/25 15:20:12;;;;;;;13.07;10.15;;;9.60;99.90;;;;;;5051947;28;20091;-67
2022/12/25 15:26:20;;;;;;;13.00;10.73;;;9.70;99.90;;;;;;4985897;28;20081;-67
2022/12/25 15:28:45;;;;;;;14.50;11.10;;;9.60;99.90;;;;;;5017974;28;20041;-67
2022/12/25 15:31:31;;;;;;;12.90;11.10;;;9.60;99.90;;;;;;5047951;28;20038;-67
2022/12/25 15:34:02;;;;;;;11.93;9.30;;;9.70;99.90;;;;;;5046458;28;20029;-67
2022/12/25 15:39:33;;;;;;;7.90;7.10;;;9.70;99.90;;;;;;5016096;28;20021;-67
2022/12/25 15:42:11;;;;;;;7.60;6.63;;;9.80;99.90;;;;;;5052248;28;20032;-67
2022/12/25 15:44:37;;;;;;;8.38;6.70;;;9.80;99.90;;;;;;5051199;28;20100;-67
2022/12/25 15:47:03;;;;;;;8.77;7.15;;;9.90;99.90;;;;;;5033153;28;20017;-67
2022/12/25 15:49:29;;;;;;;7.60;6.65;;;9.90;99.90;;;;;;5051511;28;20025;-67
2022/12/25 15:51:54;;;;;;;7.15;6.40;;;9.90;99.90;;;;;;5051931;28;20755;-67
2022/12/25 15:54:23;;;;;;;7.85;6.78;;;10.00;99.90;;;;;;5050967;28;20025;-67